createdAt,value
2023-04-04T00:01:38.978Z,2.30
2023-04-04T00:04:05.803Z,2.30
2023-04-04T00:06:32.405Z,2.20
2023-04-04T00:08:59.226Z,2.30
2023-04-04T00:11:26.872Z,2.20
2023-04-04T00:13:54.664Z,2.20
2023-04-04T00:16:22.233Z,2.20
2023-04-04T00:18:48.871Z,2.10
2023-04-04T00:21:15.669Z,2.00
2023-04-04T00:23:42.252Z,2.00
2023-04-04T00:26:08.912Z,2.10
2023-04-04T00:28:35.607Z,2.00
2023-04-04T00:31:02.253Z,2.00
2023-04-04T00:33:28.905Z,2.10
2023-04-04T00:35:55.532Z,2.00
2023-04-04T00:38:22.218Z,2.00
2023-04-04T00:40:50.780Z,2.00
2023-04-04T00:43:18.531Z,2.00
2023-04-04T00:45:48.926Z,2.00
2023-04-04T00:48:15.632Z,2.00
2023-04-04T00:50:42.392Z,2.00
2023-04-04T00:53:09.341Z,2.10
2023-04-04T00:55:39.896Z,1.90
2023-04-04T00:58:07.351Z,1.90
2023-04-04T01:00:36.267Z,1.90
2023-04-04T01:03:05.630Z,1.90
2023-04-04T01:05:32.653Z,1.90
2023-04-04T01:08:03.448Z,1.80
2023-04-04T01:10:39.731Z,1.80
2023-04-04T01:13:06.872Z,1.80
2023-04-04T01:15:33.582Z,1.90
2023-04-04T01:18:02.893Z,1.90
2023-04-04T01:20:32.528Z,1.90
2023-04-04T01:23:01.328Z,1.90
2023-04-04T01:25:31.993Z,2.00
2023-04-04T01:28:00.284Z,1.80
2023-04-04T01:30:33.906Z,1.70
2023-04-04T01:33:13.255Z,1.70
2023-04-04T01:36:10.928Z,1.70
2023-04-04T01:38:40.538Z,1.80
2023-04-04T01:41:09.046Z,1.80
2023-04-04T01:43:35.971Z,1.80
2023-04-04T01:46:03.376Z,1.80
2023-04-04T01:48:30.218Z,1.70
2023-04-04T01:50:57.929Z,1.60
2023-04-04T01:53:24.561Z,1.70
2023-04-04T01:55:53.370Z,1.60
2023-04-04T01:58:21.016Z,1.70
2023-04-04T02:00:47.716Z,1.60
2023-04-04T02:03:14.321Z,1.60
2023-04-04T02:05:40.928Z,1.60
2023-04-04T02:08:07.686Z,1.50
2023-04-04T02:10:34.414Z,1.50
2023-04-04T02:13:01.152Z,1.60
2023-04-04T02:15:27.724Z,1.60
2023-04-04T02:17:54.395Z,1.50
2023-04-04T02:20:21.151Z,1.60
2023-04-04T02:22:55.583Z,1.60
2023-04-04T02:25:24.119Z,1.60
2023-04-04T02:27:50.958Z,1.50
2023-04-04T02:30:18.002Z,1.40
2023-04-04T02:32:44.610Z,1.50
2023-04-04T02:35:11.339Z,1.50
2023-04-04T02:37:37.891Z,1.50
2023-04-04T02:40:05.537Z,1.50
2023-04-04T02:42:32.323Z,1.50
2023-04-04T02:44:59.027Z,1.50
2023-04-04T02:47:25.942Z,1.50
2023-04-04T02:49:52.655Z,1.40
2023-04-04T02:52:21.103Z,1.40
2023-04-04T02:54:47.905Z,1.40
2023-04-04T02:57:14.471Z,1.40
2023-04-04T02:59:41.058Z,1.50
2023-04-04T03:02:07.808Z,1.40
2023-04-04T03:04:36.521Z,1.40
2023-04-04T03:07:03.645Z,1.40
2023-04-04T03:09:30.256Z,1.40
2023-04-04T03:11:57.100Z,1.40
2023-04-04T03:14:26.398Z,1.30
2023-04-04T03:16:53.732Z,1.40
2023-04-04T03:19:20.496Z,1.40
2023-04-04T03:21:48.244Z,1.40
2023-04-04T03:24:14.856Z,1.40
2023-04-04T03:26:42.260Z,1.30
2023-04-04T03:29:08.899Z,1.30
2023-04-04T03:31:35.958Z,1.30
2023-04-04T03:34:07.136Z,1.40
2023-04-04T03:36:33.725Z,1.20
2023-04-04T03:39:00.633Z,1.20
2023-04-04T03:41:27.891Z,1.30
2023-04-04T03:43:54.439Z,1.20
2023-04-04T03:46:21.519Z,1.20
2023-04-04T03:48:48.449Z,1.20
2023-04-04T03:51:15.354Z,1.10
2023-04-04T03:53:41.939Z,1.10
2023-04-04T03:56:08.581Z,1.10
2023-04-04T03:58:36.265Z,1.10
2023-04-04T04:01:02.971Z,1.10
2023-04-04T04:03:29.801Z,1.10
2023-04-04T04:05:56.619Z,1.10
2023-04-04T04:08:24.049Z,1.10
2023-04-04T04:10:52.118Z,1.00
2023-04-04T04:13:18.672Z,1.10
2023-04-04T04:15:45.367Z,1.00
2023-04-04T04:18:14.960Z,1.00
2023-04-04T04:20:41.828Z,0.90
2023-04-04T04:23:08.716Z,0.90
2023-04-04T04:25:35.862Z,0.90
2023-04-04T04:28:02.594Z,0.90
2023-04-04T04:30:29.287Z,1.00
2023-04-04T04:32:56.303Z,0.90
2023-04-04T04:35:23.099Z,0.80
2023-04-04T04:37:49.772Z,0.70
2023-04-04T04:40:16.978Z,0.70
2023-04-04T04:42:45.486Z,0.70
2023-04-04T04:45:12.450Z,0.80
2023-04-04T04:47:39.135Z,0.80
2023-04-04T04:50:06.428Z,0.80
2023-04-04T04:52:33.108Z,0.80
2023-04-04T04:54:59.721Z,0.80
2023-04-04T04:57:26.302Z,0.80
2023-04-04T04:59:52.917Z,0.90
2023-04-04T05:02:19.801Z,1.10
2023-04-04T05:04:46.686Z,1.00
2023-04-04T05:07:13.630Z,1.00
2023-04-04T05:09:40.575Z,0.90
2023-04-04T05:12:07.748Z,0.90
2023-04-04T05:14:34.500Z,0.90
2023-04-04T05:17:01.444Z,0.90
2023-04-04T05:19:28.381Z,0.80
2023-04-04T05:21:55.070Z,0.80
2023-04-04T05:24:22.939Z,0.80
2023-04-04T05:26:49.757Z,0.90
2023-04-04T05:29:16.453Z,1.00
2023-04-04T05:31:43.185Z,1.00
2023-04-04T05:34:09.896Z,0.90
2023-04-04T05:36:37.000Z,1.00
2023-04-04T05:39:04.921Z,1.10
2023-04-04T05:41:32.152Z,1.10
2023-04-04T05:43:59.126Z,1.10
2023-04-04T05:46:26.126Z,1.20
2023-04-04T05:48:53.017Z,1.10
2023-04-04T05:51:19.836Z,1.30
2023-04-04T05:53:47.574Z,1.40
2023-04-04T05:56:14.484Z,1.40
2023-04-04T05:58:42.724Z,1.40
2023-04-04T06:01:09.494Z,1.50
2023-04-04T06:03:36.450Z,1.40
2023-04-04T06:06:04.622Z,1.40
2023-04-04T06:08:35.355Z,1.40
2023-04-04T06:11:07.110Z,1.60
2023-04-04T06:13:33.820Z,1.60
2023-04-04T06:16:00.536Z,1.70
2023-04-04T06:18:27.277Z,1.70
2023-04-04T06:20:53.947Z,1.80
2023-04-04T06:23:20.496Z,1.80
2023-04-04T06:25:47.999Z,1.90
2023-04-04T06:28:16.780Z,1.90
2023-04-04T06:30:44.532Z,1.90
2023-04-04T06:33:11.806Z,2.00
2023-04-04T06:35:38.496Z,2.00
2023-04-04T06:38:05.493Z,2.10
2023-04-04T06:40:32.473Z,2.30
2023-04-04T06:42:59.201Z,2.30
2023-04-04T06:45:27.037Z,2.30
2023-04-04T06:47:54.719Z,2.40
2023-04-04T06:50:23.025Z,2.50
2023-04-04T06:52:50.246Z,2.50
2023-04-04T06:55:20.862Z,2.60
2023-04-04T06:57:47.502Z,2.70
2023-04-04T07:00:14.846Z,2.70
2023-04-04T07:02:41.604Z,2.80
2023-04-04T07:05:10.019Z,3.00
2023-04-04T07:07:36.729Z,3.00
2023-04-04T07:10:09.326Z,3.20
2023-04-04T07:12:36.037Z,3.30
2023-04-04T07:15:03.744Z,3.40
2023-04-04T07:17:30.483Z,3.50
2023-04-04T07:20:00.887Z,3.60
2023-04-04T07:22:28.426Z,3.60
2023-04-04T07:24:55.163Z,3.70
2023-04-04T07:27:21.710Z,3.70
2023-04-04T07:29:48.376Z,3.80
2023-04-04T07:32:15.020Z,3.90
2023-04-04T07:34:41.744Z,4.00
2023-04-04T07:37:08.662Z,4.10
2023-04-04T07:39:38.247Z,4.10
2023-04-04T07:42:04.937Z,4.40
2023-04-04T07:44:31.638Z,4.60
2023-04-04T07:47:08.714Z,4.70
2023-04-04T07:49:36.887Z,4.60
2023-04-04T07:52:04.497Z,4.70
2023-04-04T07:54:31.188Z,5.10
2023-04-04T07:56:57.874Z,5.10
2023-04-04T07:59:24.503Z,5.00
2023-04-04T08:01:51.219Z,5.10
2023-04-04T08:04:20.808Z,5.00
2023-04-04T08:06:47.565Z,4.90
2023-04-04T08:09:14.242Z,4.90
2023-04-04T08:11:41.256Z,5.00
2023-04-04T08:14:11.716Z,5.10
2023-04-04T08:16:39.177Z,5.20
2023-04-04T08:19:07.020Z,5.40
2023-04-04T08:21:33.879Z,5.30
2023-04-04T08:24:00.571Z,5.30
2023-04-04T08:26:27.579Z,5.60
2023-04-04T08:28:57.494Z,5.90
2023-04-04T08:31:24.254Z,6.10
2023-04-04T08:33:52.339Z,6.20
2023-04-04T08:36:19.643Z,6.30
2023-04-04T08:38:46.341Z,6.30
2023-04-04T08:41:13.344Z,6.50
2023-04-04T08:43:42.099Z,6.40
2023-04-04T08:46:11.645Z,6.70
2023-04-04T08:48:41.486Z,6.70
2023-04-04T08:51:10.565Z,6.60
2023-04-04T08:53:38.621Z,6.60
2023-04-04T08:56:05.652Z,6.70
2023-04-04T08:58:32.726Z,6.50
2023-04-04T09:01:00.022Z,6.50
2023-04-04T09:03:31.278Z,6.70
2023-04-04T09:05:58.885Z,6.90
2023-04-04T09:08:26.740Z,6.50
2023-04-04T09:10:55.122Z,6.50
2023-04-04T09:13:23.611Z,6.50
2023-04-04T09:15:54.437Z,6.70
2023-04-04T09:18:26.634Z,6.80
2023-04-04T09:20:54.161Z,7.10
2023-04-04T09:23:23.814Z,7.00
2023-04-04T09:28:25.755Z,7.10
2023-04-04T09:30:53.311Z,7.20
2023-04-04T09:33:26.712Z,6.80
2023-04-04T09:36:07.365Z,7.20
2023-04-04T09:38:37.796Z,7.30
2023-04-04T09:41:09.930Z,7.10
2023-04-04T09:43:39.568Z,7.30
2023-04-04T09:46:08.174Z,7.10
2023-04-04T09:48:37.226Z,6.80
2023-04-04T09:51:06.533Z,6.00
2023-04-04T09:53:38.632Z,5.50
2023-04-04T09:56:09.685Z,6.50
2023-04-04T09:58:49.495Z,7.00
2023-04-04T10:01:29.225Z,6.80
2023-04-04T10:03:59.604Z,6.90
2023-04-04T10:06:27.445Z,7.20
2023-04-04T10:08:56.623Z,7.10
2023-04-04T10:11:34.515Z,7.10
2023-04-04T10:14:05.564Z,7.30
2023-04-04T10:16:38.267Z,7.40
2023-04-04T10:19:09.494Z,7.40
2023-04-04T10:21:38.896Z,7.50
2023-04-04T10:24:10.268Z,7.10
2023-04-04T10:26:37.920Z,6.70
2023-04-04T10:29:06.149Z,6.30
2023-04-04T10:31:36.368Z,6.10
2023-04-04T10:34:12.948Z,5.70
2023-04-04T10:37:03.587Z,5.70
2023-04-04T10:39:39.525Z,6.50
2023-04-04T10:42:07.937Z,7.40
2023-04-04T10:44:41.757Z,8.00
2023-04-04T10:47:26.641Z,7.90
2023-04-04T10:49:54.448Z,7.80
2023-04-04T10:52:24.989Z,7.60
2023-04-04T10:54:58.160Z,7.60
2023-04-04T10:57:26.640Z,7.90
2023-04-04T11:00:09.056Z,8.10
2023-04-04T11:02:56.886Z,8.40
2023-04-04T11:05:52.797Z,8.50
2023-04-04T11:08:27.881Z,8.70
2023-04-04T11:10:55.752Z,8.80
2023-04-04T11:13:29.406Z,8.90
2023-04-04T11:16:01.374Z,9.10
2023-04-04T11:18:49.181Z,8.80
2023-04-04T11:21:24.937Z,8.80
2023-04-04T11:23:54.984Z,9.00
2023-04-04T11:26:51.434Z,9.10
2023-04-04T11:29:42.471Z,9.20
2023-04-04T11:32:30.733Z,9.00
2023-04-04T11:35:00.347Z,9.60
2023-04-04T11:37:37.779Z,9.30
2023-04-04T11:40:17.208Z,9.40
2023-04-04T11:42:46.624Z,9.50
2023-04-04T11:45:31.696Z,9.30
2023-04-04T11:48:01.175Z,9.60
2023-04-04T11:50:38.673Z,9.50
2023-04-04T11:53:16.062Z,9.80
2023-04-04T11:55:47.036Z,10.10
2023-04-04T11:58:17.255Z,10.30
2023-04-04T12:00:45.714Z,10.20
2023-04-04T12:03:17.231Z,10.10
2023-04-04T12:05:46.389Z,10.00
2023-04-04T12:08:14.915Z,10.30
2023-04-04T12:10:42.146Z,10.40
2023-04-04T12:13:12.064Z,10.10
2023-04-04T12:15:41.889Z,9.90
2023-04-04T12:18:10.052Z,10.40
2023-04-04T12:20:48.648Z,10.40
2023-04-04T12:23:19.235Z,10.40
2023-04-04T12:25:52.119Z,10.50
2023-04-04T12:28:23.179Z,10.10
2023-04-04T12:30:53.463Z,10.40
2023-04-04T12:33:21.366Z,10.50
2023-04-04T12:35:53.389Z,10.60
2023-04-04T12:38:26.215Z,10.50
2023-04-04T12:40:54.897Z,10.70
2023-04-04T12:43:31.816Z,10.60
2023-04-04T12:45:58.855Z,10.80
2023-04-04T12:48:31.871Z,11.10
2023-04-04T12:51:00.877Z,11.10
2023-04-04T12:53:30.192Z,11.40
2023-04-04T12:56:05.041Z,11.80
2023-04-04T12:58:37.117Z,11.30
2023-04-04T13:01:08.515Z,11.30
2023-04-04T13:03:37.890Z,11.30
2023-04-04T13:06:12.696Z,11.60
2023-04-04T13:08:51.003Z,11.70
2023-04-04T13:11:18.844Z,11.10
2023-04-04T13:13:51.657Z,11.50
2023-04-04T13:16:34.080Z,11.60
2023-04-04T13:19:04.962Z,12.00
2023-04-04T13:21:34.257Z,11.60
2023-04-04T13:24:10.014Z,11.60
2023-04-04T13:26:44.535Z,12.00
2023-04-04T13:29:11.993Z,12.30
2023-04-04T13:31:40.272Z,12.50
2023-04-04T13:34:09.571Z,12.50
2023-04-04T13:36:36.876Z,12.60
2023-04-04T13:39:04.180Z,12.90
2023-04-04T13:41:31.639Z,12.80
2023-04-04T13:44:04.673Z,12.60
2023-04-04T13:46:32.102Z,13.00
2023-04-04T13:48:59.443Z,12.50
2023-04-04T13:51:27.106Z,12.30
2023-04-04T13:53:57.316Z,12.10
2023-04-04T13:56:24.619Z,12.10
2023-04-04T13:58:52.726Z,12.90
2023-04-04T14:01:21.714Z,13.20
2023-04-04T14:03:48.934Z,13.60
2023-04-04T14:06:16.361Z,13.90
2023-04-04T14:08:43.611Z,13.70
2023-04-04T14:11:13.844Z,13.60
2023-04-04T14:13:40.889Z,13.60
2023-04-04T14:16:08.944Z,13.30
2023-04-04T14:18:36.103Z,14.30
2023-04-04T14:21:10.412Z,14.50
2023-04-04T14:23:37.568Z,14.20
2023-04-04T14:26:17.017Z,14.10
2023-04-04T14:28:46.024Z,14.30
2023-04-04T14:31:18.109Z,14.00
2023-04-04T14:33:55.950Z,13.70
2023-04-04T14:36:24.673Z,13.50
2023-04-04T14:38:51.902Z,13.30
2023-04-04T14:41:22.424Z,13.20
2023-04-04T14:43:49.674Z,13.80
2023-04-04T14:46:18.700Z,14.10
2023-04-04T14:48:49.498Z,13.90
2023-04-04T14:51:21.474Z,14.20
2023-04-04T14:53:49.029Z,14.30
2023-04-04T14:56:16.550Z,14.30
2023-04-04T14:58:46.613Z,14.60
2023-04-04T15:01:15.212Z,14.40
2023-04-04T15:03:45.464Z,14.60
2023-04-04T15:06:12.739Z,14.70
2023-04-04T15:08:39.783Z,14.60
2023-04-04T15:11:09.735Z,14.40
2023-04-04T15:13:39.256Z,14.10
2023-04-04T15:16:06.942Z,14.30
2023-04-04T15:18:34.518Z,14.10
2023-04-04T15:21:03.995Z,13.70
2023-04-04T15:23:36.033Z,13.90
2023-04-04T15:26:06.706Z,14.10
2023-04-04T15:28:33.774Z,14.30
2023-04-04T15:31:07.603Z,14.20
2023-04-04T15:33:34.581Z,13.70
2023-04-04T15:36:05.546Z,13.70
2023-04-04T15:38:32.769Z,13.50
2023-04-04T15:41:01.098Z,13.50
2023-04-04T15:43:28.681Z,13.70
2023-04-04T15:45:58.913Z,13.60
2023-04-04T15:48:27.312Z,13.40
2023-04-04T15:51:02.618Z,12.90
2023-04-04T15:53:33.478Z,12.70
2023-04-04T15:56:02.110Z,12.50
2023-04-04T15:58:29.279Z,12.70
2023-04-04T16:00:56.542Z,12.80
2023-04-04T16:03:25.794Z,12.60
2023-04-04T16:05:55.244Z,12.20
2023-04-04T16:08:22.300Z,12.00
2023-04-04T16:10:51.803Z,11.90
2023-04-04T16:13:19.053Z,11.50
2023-04-04T16:15:53.286Z,11.30
2023-04-04T16:18:21.658Z,11.20
2023-04-04T16:20:48.724Z,11.10
2023-04-04T16:23:16.036Z,11.00
2023-04-04T16:25:43.566Z,10.70
2023-04-04T16:28:13.770Z,10.70
2023-04-04T16:30:41.161Z,10.50
2023-04-04T16:33:08.819Z,10.60
2023-04-04T16:35:37.428Z,10.50
2023-04-04T16:38:04.549Z,10.50
2023-04-04T16:40:34.495Z,10.40
2023-04-04T16:43:01.712Z,10.50
2023-04-04T16:45:28.723Z,10.40
2023-04-04T16:47:59.066Z,10.20
2023-04-04T16:50:28.959Z,10.00
2023-04-04T16:52:56.245Z,9.90
2023-04-04T16:55:30.470Z,9.90
2023-04-04T16:57:57.892Z,9.70
2023-04-04T17:00:26.713Z,9.80
2023-04-04T17:02:53.925Z,9.70
2023-04-04T17:05:31.593Z,9.70
2023-04-04T17:08:01.820Z,9.60
2023-04-04T17:10:31.779Z,9.50
2023-04-04T17:13:01.282Z,9.60
2023-04-04T17:15:48.909Z,9.50
2023-04-04T17:18:19.591Z,9.30
2023-04-04T17:20:49.679Z,9.40
2023-04-04T17:23:18.905Z,9.30
2023-04-04T17:25:45.916Z,9.20
2023-04-04T17:28:14.065Z,9.10
2023-04-04T17:30:50.867Z,8.90
2023-04-04T17:33:18.052Z,8.90
2023-04-04T17:35:48.360Z,8.90
2023-04-04T17:38:15.593Z,8.80
2023-04-04T17:40:42.988Z,8.70
2023-04-04T17:43:11.953Z,8.70
2023-04-04T17:45:39.308Z,8.70
2023-04-04T17:48:14.843Z,8.60
2023-04-04T17:50:45.323Z,8.60
2023-04-04T17:53:12.279Z,8.50
2023-04-04T17:55:40.392Z,8.40
2023-04-04T17:58:07.462Z,8.50
2023-04-04T18:00:34.922Z,8.30
2023-04-04T18:03:02.481Z,8.30
2023-04-04T18:05:29.448Z,8.20
2023-04-04T18:07:58.022Z,8.20
2023-04-04T18:10:24.617Z,8.10
2023-04-04T18:12:52.006Z,8.00
2023-04-04T18:15:18.958Z,8.00
2023-04-04T18:17:46.581Z,8.00
2023-04-04T18:20:16.460Z,7.80
2023-04-04T18:22:48.303Z,7.80
2023-04-04T18:25:17.719Z,7.80
2023-04-04T18:27:44.604Z,7.80
2023-04-04T18:30:11.719Z,7.70
2023-04-04T18:32:38.710Z,7.50
2023-04-04T18:35:08.966Z,7.60
2023-04-04T18:37:37.312Z,7.60
2023-04-04T18:40:04.267Z,7.50
2023-04-04T18:42:31.511Z,7.50
2023-04-04T18:44:58.331Z,7.40
2023-04-04T18:47:27.049Z,7.30
2023-04-04T18:49:53.911Z,7.30
2023-04-04T18:52:20.796Z,7.20
2023-04-04T18:54:47.535Z,7.20
2023-04-04T18:57:14.657Z,7.20
2023-04-04T18:59:42.360Z,7.10
2023-04-04T19:02:09.071Z,7.10
2023-04-04T19:04:40.807Z,7.10
2023-04-04T19:07:07.719Z,7.00
2023-04-04T19:09:36.451Z,7.20
2023-04-04T19:12:04.222Z,7.20
2023-04-04T19:14:31.131Z,7.00
2023-04-04T19:16:57.849Z,6.90
2023-04-04T19:19:24.541Z,6.90
2023-04-04T19:21:51.210Z,6.90
2023-04-04T19:24:19.662Z,6.80
2023-04-04T19:26:47.003Z,6.80
2023-04-04T19:29:20.282Z,6.70
2023-04-04T19:31:50.726Z,6.70
2023-04-04T19:34:20.444Z,6.60
2023-04-04T19:36:47.150Z,6.70
2023-04-04T19:39:19.068Z,6.60
2023-04-04T19:41:48.519Z,6.50
2023-04-04T19:44:22.971Z,6.50
2023-04-04T19:46:55.704Z,6.50
2023-04-04T19:49:30.099Z,6.30
2023-04-04T19:52:01.926Z,6.30
2023-04-04T19:54:34.213Z,6.30
2023-04-04T19:57:07.185Z,6.30
2023-04-04T19:59:49.738Z,6.30
2023-04-04T20:02:34.474Z,6.20
2023-04-04T20:05:01.537Z,6.20
2023-04-04T20:07:29.048Z,6.20
2023-04-04T20:09:58.980Z,6.10
2023-04-04T20:12:26.394Z,6.00
2023-04-04T20:14:59.302Z,6.00
2023-04-04T20:17:27.990Z,5.90
2023-04-04T20:19:54.648Z,5.90
2023-04-04T20:22:23.200Z,5.90
2023-04-04T20:24:50.250Z,5.90
2023-04-04T20:27:24.271Z,5.90
2023-04-04T20:29:53.348Z,5.90
2023-04-04T20:32:20.272Z,5.90
2023-04-04T20:34:49.612Z,5.90
2023-04-04T20:37:20.045Z,5.70
2023-04-04T20:39:59.805Z,5.80
2023-04-04T20:42:29.317Z,5.80
2023-04-04T20:45:28.025Z,5.60
2023-04-04T20:47:57.836Z,5.50
2023-04-04T20:50:26.927Z,5.40
2023-04-04T20:52:58.819Z,5.40
2023-04-04T20:55:30.569Z,5.30
2023-04-04T20:58:07.028Z,5.40
2023-04-04T21:00:33.881Z,5.40
2023-04-04T21:03:07.327Z,5.40
2023-04-04T21:05:39.294Z,5.40
2023-04-04T21:08:40.648Z,5.30
2023-04-04T21:11:07.340Z,5.40
2023-04-04T21:13:39.606Z,5.30
2023-04-04T21:16:18.749Z,5.40
2023-04-04T21:18:46.049Z,5.40
2023-04-04T21:21:20.353Z,5.40
2023-04-04T21:23:57.636Z,5.60
2023-04-04T21:26:31.747Z,5.60
2023-04-04T21:29:16.715Z,5.40
2023-04-04T21:31:43.645Z,5.50
2023-04-04T21:34:13.071Z,5.50
2023-04-04T21:36:41.032Z,5.40
2023-04-04T21:39:30.601Z,5.30
2023-04-04T21:42:03.623Z,5.30
2023-04-04T21:44:34.332Z,5.40
2023-04-04T21:47:00.986Z,5.50
2023-04-04T21:49:30.977Z,5.40
2023-04-04T21:51:57.893Z,5.40
2023-04-04T21:54:24.435Z,5.40
2023-04-04T21:56:51.056Z,5.50
2023-04-04T21:59:17.812Z,5.60
2023-04-04T22:01:44.576Z,5.60
2023-04-04T22:04:11.328Z,5.50
2023-04-04T22:06:37.958Z,5.60
2023-04-04T22:09:05.194Z,5.50
2023-04-04T22:11:34.317Z,5.50
2023-04-04T22:14:04.159Z,5.40
2023-04-04T22:16:36.812Z,5.40
2023-04-04T22:19:04.060Z,5.30
2023-04-04T22:21:36.036Z,5.40
2023-04-04T22:24:02.817Z,5.40
2023-04-04T22:26:31.952Z,5.40
2023-04-04T22:29:00.235Z,5.30
2023-04-04T22:31:28.171Z,5.20
2023-04-04T22:33:55.439Z,5.10
2023-04-04T22:36:24.277Z,5.10
2023-04-04T22:38:57.361Z,5.00
2023-04-04T22:41:29.183Z,5.00
2023-04-04T22:43:57.081Z,5.00
2023-04-04T22:46:28.800Z,5.00
2023-04-04T22:49:05.365Z,4.90
2023-04-04T22:51:42.684Z,4.90
2023-04-04T22:54:09.470Z,4.90
2023-04-04T22:56:36.359Z,4.90
2023-04-04T22:59:03.139Z,4.90
2023-04-04T23:01:30.201Z,4.70
2023-04-04T23:03:57.065Z,4.70
2023-04-04T23:06:26.631Z,4.70
2023-04-04T23:08:54.620Z,4.60
2023-04-04T23:11:22.036Z,4.70
2023-04-04T23:13:48.981Z,4.70
2023-04-04T23:16:15.805Z,4.80
2023-04-04T23:18:51.841Z,4.80
2023-04-04T23:21:19.117Z,4.80
2023-04-04T23:23:46.291Z,4.70
2023-04-04T23:26:13.544Z,4.70
2023-04-04T23:28:40.568Z,4.50
2023-04-04T23:31:07.587Z,4.50
2023-04-04T23:33:34.406Z,4.50
2023-04-04T23:36:01.090Z,4.60
2023-04-04T23:38:27.692Z,4.60
2023-04-04T23:40:54.237Z,4.50
2023-04-04T23:43:21.147Z,4.60
2023-04-04T23:45:47.816Z,4.60
2023-04-04T23:48:14.538Z,4.50
2023-04-04T23:50:41.640Z,4.50
2023-04-04T23:53:08.582Z,4.50
2023-04-04T23:55:35.434Z,4.40
2023-04-04T23:58:03.328Z,4.50
